Time;durP1;ratioP1;P1;durP2;ratioP2;P2;SDS_P1;SDS_P2;PMS_P1;PMS_P2;Temp;Humidity;BMP_temperature;BMP_pressure;BME280_temperature;BME280_humidity;BME280_pressure;Samples;Min_cycle;Max_cycle;Signal;HPM_P1;HPM_P2
2024/01/26 00:01:53;;;;;;;2.00;1.10;;;8.20;99.90;;;;;;5006153;28;20189;-73
2024/01/26 00:04:19;;;;;;;1.87;1.20;;;8.80;99.90;;;;;;5011788;28;20190;-73
2024/01/26 00:06:44;;;;;;;2.73;1.43;;;7.50;99.90;;;;;;5011870;28;20258;-73
2024/01/26 00:09:11;;;;;;;2.10;1.10;;;7.50;99.90;;;;;;5011830;28;20183;-73
2024/01/26 00:11:37;;;;;;;3.30;1.30;;;8.90;99.90;;;;;;5011637;28;20194;-73
2024/01/26 00:14:03;;;;;;;2.30;1.00;;;8.60;99.90;;;;;;5011319;28;20422;-74
2024/01/26 00:16:28;;;;;;;1.50;1.00;;;9.10;99.90;;;;;;5011385;28;20429;-73
2024/01/26 00:18:54;;;;;;;1.83;1.20;;;7.50;99.90;;;;;;5009849;28;20229;-73
2024/01/26 00:21:19;;;;;;;3.30;1.37;;;8.80;99.90;;;;;;5011597;28;20235;-73
2024/01/26 00:23:45;;;;;;;2.07;1.10;;;7.40;99.90;;;;;;5014384;28;20674;-73
2024/01/26 00:26:14;;;;;;;2.33;1.03;;;7.30;99.90;;;;;;5017438;28;20270;-73
2024/01/26 00:28:39;;;;;;;1.50;1.00;;;7.40;99.90;;;;;;5011355;28;20588;-73
2024/01/26 00:31:05;;;;;;;1.77;0.97;;;7.40;99.90;;;;;;5010319;28;20436;-73
2024/01/26 00:33:31;;;;;;;1.50;0.70;;;7.40;99.90;;;;;;5011281;28;20654;-73
2024/01/26 00:35:57;;;;;;;4.30;0.90;;;8.50;99.90;;;;;;5011358;28;20529;-73
2024/01/26 00:38:22;;;;;;;1.53;0.63;;;7.70;99.90;;;;;;5011336;28;20428;-73
2024/01/26 00:40:48;;;;;;;1.80;1.00;;;8.20;99.90;;;;;;5011239;28;20221;-73
2024/01/26 00:43:13;;;;;;;1.23;0.60;;;7.40;99.90;;;;;;5010446;28;20682;-73
2024/01/26 00:45:39;;;;;;;1.60;0.80;;;8.40;99.90;;;;;;5016965;28;20620;-73
2024/01/26 00:48:05;;;;;;;2.20;0.80;;;7.40;99.90;;;;;;5009499;28;20234;-73
2024/01/26 00:50:30;;;;;;;1.67;0.73;;;7.30;99.90;;;;;;5012240;28;20666;-73
2024/01/26 00:52:56;;;;;;;1.20;0.50;;;7.20;99.90;;;;;;5011203;28;20644;-73
2024/01/26 00:55:22;;;;;;;1.93;0.60;;;7.20;99.90;;;;;;5011344;28;20266;-73
2024/01/26 00:57:48;;;;;;;1.20;0.50;;;7.50;99.90;;;;;;5011160;28;20179;-73
2024/01/26 01:00:14;;;;;;;1.10;0.60;;;7.70;99.90;;;;;;5010530;28;20472;-73
2024/01/26 01:02:40;;;;;;;1.60;0.70;;;7.10;99.90;;;;;;5010792;28;20194;-73
2024/01/26 01:05:06;;;;;;;1.20;0.70;;;7.00;99.90;;;;;;5011415;28;20452;-73
2024/01/26 01:07:32;;;;;;;1.63;0.60;;;7.00;99.90;;;;;;5011000;28;20175;-73
2024/01/26 01:09:58;;;;;;;1.20;0.70;;;7.00;99.90;;;;;;5010739;28;20428;-73
2024/01/26 01:12:23;;;;;;;1.57;0.77;;;8.20;99.90;;;;;;5012311;28;20950;-73
2024/01/26 01:14:49;;;;;;;1.30;0.50;;;7.70;99.90;;;;;;5014588;28;20195;-73
2024/01/26 01:17:14;;;;;;;1.53;0.90;;;7.50;99.90;;;;;;5016990;28;20259;-73
2024/01/26 01:19:40;;;;;;;1.80;0.80;;;7.30;99.90;;;;;;5015499;28;20214;-72
2024/01/26 01:22:05;;;;;;;1.37;0.77;;;6.90;99.90;;;;;;5014565;28;20214;-73
2024/01/26 01:24:31;;;;;;;8.53;1.13;;;7.00;99.90;;;;;;5014641;28;20513;-73
2024/01/26 01:26:57;;;;;;;1.00;0.50;;;7.50;99.90;;;;;;5014722;28;20183;-72
2024/01/26 01:29:22;;;;;;;1.60;0.77;;;8.10;99.90;;;;;;5013896;28;20273;-73
2024/01/26 01:31:48;;;;;;;1.60;0.80;;;7.10;99.90;;;;;;5014371;28;20663;-74
2024/01/26 01:34:13;;;;;;;2.00;0.70;;;8.50;99.90;;;;;;5014074;28;20675;-73
2024/01/26 01:36:39;;;;;;;1.20;0.70;;;8.50;99.90;;;;;;5014567;28;20185;-73
2024/01/26 01:39:04;;;;;;;2.63;0.80;;;7.60;99.90;;;;;;5015186;28;20205;-73
2024/01/26 01:41:30;;;;;;;1.83;0.93;;;8.40;99.90;;;;;;5015029;28;20191;-73
2024/01/26 01:43:56;;;;;;;2.07;0.80;;;7.80;99.90;;;;;;5014000;28;20187;-73
2024/01/26 01:46:22;;;;;;;2.43;0.70;;;7.10;99.90;;;;;;5023952;28;20191;-73
2024/01/26 01:48:51;;;;;;;2.10;1.00;;;7.20;99.90;;;;;;5012771;28;20481;-73
2024/01/26 01:51:17;;;;;;;1.60;0.70;;;7.10;99.90;;;;;;5014339;28;20225;-73
2024/01/26 01:53:42;;;;;;;1.30;0.60;;;8.50;99.90;;;;;;5014070;28;20418;-72
2024/01/26 01:56:11;;;;;;;2.33;0.73;;;7.90;99.90;;;;;;5014293;28;20203;-71
2024/01/26 01:58:40;;;;;;;1.07;0.50;;;7.20;99.90;;;;;;5033550;28;20630;-72
2024/01/26 02:01:06;;;;;;;1.10;0.53;;;8.40;99.90;;;;;;5033228;28;20413;-71
2024/01/26 02:03:32;;;;;;;1.10;0.50;;;8.50;99.90;;;;;;5033363;28;20500;-72
2024/01/26 02:05:57;;;;;;;1.40;0.70;;;8.60;99.90;;;;;;5033995;28;20178;-72
2024/01/26 02:08:23;;;;;;;1.30;0.80;;;8.20;99.90;;;;;;5033505;28;20634;-72
2024/01/26 02:10:49;;;;;;;1.97;0.90;;;7.20;99.90;;;;;;5033492;28;20190;-72
2024/01/26 02:13:14;;;;;;;1.30;0.67;;;8.60;99.90;;;;;;5033707;28;20191;-71
2024/01/26 02:15:40;;;;;;;2.63;0.77;;;8.00;99.90;;;;;;5033128;28;20232;-72
2024/01/26 02:18:05;;;;;;;1.77;1.13;;;8.10;99.90;;;;;;5031749;28;20195;-72
2024/01/26 02:20:31;;;;;;;1.97;0.80;;;7.30;99.90;;;;;;5033528;28;20206;-71
2024/01/26 02:22:57;;;;;;;1.80;0.60;;;7.30;99.90;;;;;;5032793;28;20670;-72
2024/01/26 02:25:22;;;;;;;1.63;0.83;;;7.30;99.90;;;;;;5032343;28;20186;-72
2024/01/26 02:27:50;;;;;;;1.40;0.90;;;7.80;99.90;;;;;;5033087;28;20257;-72
2024/01/26 02:30:15;;;;;;;1.70;1.00;;;7.30;99.90;;;;;;5032674;28;20348;-71
2024/01/26 02:32:41;;;;;;;2.00;1.00;;;7.20;99.90;;;;;;5032781;28;20551;-74
2024/01/26 02:35:07;;;;;;;1.77;0.90;;;8.90;99.90;;;;;;5033369;28;20201;-72
2024/01/26 02:37:33;;;;;;;2.37;1.40;;;7.20;99.90;;;;;;5033080;28;20179;-72
2024/01/26 02:39:58;;;;;;;1.53;0.90;;;8.40;99.90;;;;;;5039372;28;20472;-72
2024/01/26 02:42:24;;;;;;;2.60;1.20;;;8.70;99.90;;;;;;5038229;28;20186;-71
2024/01/26 02:44:49;;;;;;;1.73;1.10;;;8.10;99.90;;;;;;5032897;28;20217;-73
2024/01/26 02:47:15;;;;;;;1.93;1.00;;;8.30;99.90;;;;;;5031625;28;20210;-72
2024/01/26 02:49:42;;;;;;;1.70;0.80;;;9.00;99.90;;;;;;5032704;28;20570;-72
2024/01/26 02:52:08;;;;;;;2.23;1.30;;;7.30;99.90;;;;;;5033022;28;20175;-72
2024/01/26 02:54:33;;;;;;;3.23;1.27;;;9.00;99.90;;;;;;5032981;28;20754;-74
2024/01/26 02:56:59;;;;;;;3.00;1.50;;;8.60;99.90;;;;;;5033041;28;20283;-71
2024/01/26 02:59:24;;;;;;;1.63;1.00;;;8.50;99.90;;;;;;5032828;28;20210;-72
2024/01/26 03:01:50;;;;;;;3.30;1.60;;;8.60;99.90;;;;;;5032643;28;20185;-71
2024/01/26 03:04:18;;;;;;;1.70;1.10;;;8.30;99.90;;;;;;5032752;28;20238;-72
2024/01/26 03:06:44;;;;;;;2.10;1.30;;;7.20;99.90;;;;;;5033102;28;20182;-72
2024/01/26 03:09:10;;;;;;;4.93;1.40;;;7.30;99.90;;;;;;5042269;28;20428;-72
2024/01/26 03:11:41;;;;;;;2.10;1.40;;;8.70;99.90;;;;;;5032487;28;20508;-72
2024/01/26 03:14:07;;;;;;;2.40;1.07;;;8.60;99.90;;;;;;5032748;28;20178;-71
2024/01/26 03:16:34;;;;;;;2.43;1.30;;;7.10;99.90;;;;;;5031564;28;20428;-71
2024/01/26 03:18:59;;;;;;;1.70;0.97;;;8.90;99.90;;;;;;5031142;28;20215;-71
2024/01/26 03:21:26;;;;;;;7.13;1.20;;;8.50;99.90;;;;;;5032239;28;20529;-71
2024/01/26 03:23:51;;;;;;;2.67;1.30;;;8.50;99.90;;;;;;5032393;28;20198;-72
2024/01/26 03:26:17;;;;;;;2.80;1.17;;;8.60;99.90;;;;;;5032193;28;20417;-71
2024/01/26 03:28:42;;;;;;;3.00;0.93;;;7.10;99.90;;;;;;5031737;28;20179;-72
2024/01/26 03:31:08;;;;;;;4.80;1.23;;;8.50;99.90;;;;;;5031709;28;20205;-71
2024/01/26 03:33:33;;;;;;;1.67;0.93;;;7.10;99.90;;;;;;5031392;28;20210;-71
2024/01/26 03:35:59;;;;;;;5.03;1.40;;;8.40;99.90;;;;;;5031698;28;20225;-71
2024/01/26 03:38:24;;;;;;;1.67;1.00;;;7.00;99.90;;;;;;5030901;28;20190;-71
2024/01/26 03:40:50;;;;;;;2.43;0.97;;;7.80;99.90;;;;;;5031963;28;20956;-72
2024/01/26 03:43:15;;;;;;;4.70;1.20;;;7.00;99.90;;;;;;5032331;28;20186;-71
2024/01/26 03:45:41;;;;;;;1.43;0.77;;;7.10;99.90;;;;;;5036918;28;20588;-71
2024/01/26 03:48:07;;;;;;;2.07;0.90;;;8.50;99.90;;;;;;5031327;28;20182;-72
2024/01/26 03:50:33;;;;;;;1.20;0.73;;;7.10;99.90;;;;;;5031537;28;20196;-71
2024/01/26 03:52:59;;;;;;;1.83;0.70;;;8.50;99.90;;;;;;5031707;28;20545;-71
2024/01/26 03:55:24;;;;;;;1.47;0.77;;;8.40;99.90;;;;;;5031653;28;20516;-71
2024/01/26 03:57:50;;;;;;;2.30;1.10;;;8.70;99.90;;;;;;5033361;28;20198;-71
2024/01/26 04:00:16;;;;;;;4.13;0.70;;;7.10;99.90;;;;;;5033617;28;20229;-71
2024/01/26 04:02:41;;;;;;;1.30;0.60;;;7.20;99.90;;;;;;5031745;28;20249;-72
2024/01/26 04:05:08;;;;;;;1.53;0.70;;;7.20;99.90;;;;;;5031740;28;20421;-72
2024/01/26 04:07:34;;;;;;;1.30;0.60;;;7.20;99.90;;;;;;5030674;28;20175;-71
2024/01/26 04:10:00;;;;;;;4.00;0.73;;;7.50;99.90;;;;;;5031666;28;20422;-72
2024/01/26 04:12:26;;;;;;;1.40;0.77;;;8.60;99.90;;;;;;5030768;28;20444;-71
2024/01/26 04:14:51;;;;;;;1.47;0.87;;;7.20;99.90;;;;;;5031148;28;20194;-72
2024/01/26 04:17:17;;;;;;;1.60;0.90;;;8.60;99.90;;;;;;5031212;28;20235;-72
2024/01/26 04:19:42;;;;;;;1.27;0.73;;;7.20;99.90;;;;;;5030659;28;20529;-72
2024/01/26 04:22:08;;;;;;;5.37;0.70;;;8.30;99.90;;;;;;5031410;28;20182;-71
2024/01/26 04:24:36;;;;;;;2.33;0.97;;;7.20;99.90;;;;;;5031211;28;20845;-73
2024/01/26 04:27:02;;;;;;;1.10;0.60;;;7.30;99.90;;;;;;5031323;28;20186;-72
2024/01/26 04:29:27;;;;;;;1.67;0.80;;;7.30;99.90;;;;;;5030616;28;20469;-72
2024/01/26 04:31:53;;;;;;;1.40;0.70;;;7.70;99.90;;;;;;5043584;28;20194;-71
2024/01/26 04:34:19;;;;;;;1.50;0.73;;;8.30;99.90;;;;;;5030581;28;20182;-72
2024/01/26 04:36:47;;;;;;;1.30;0.60;;;7.20;99.90;;;;;;5030378;28;20432;-72
2024/01/26 04:39:14;;;;;;;2.20;0.70;;;8.70;99.90;;;;;;5031059;28;20202;-72
2024/01/26 04:41:40;;;;;;;1.23;0.47;;;7.20;99.90;;;;;;5031377;28;20421;-71
2024/01/26 04:44:06;;;;;;;1.33;0.50;;;8.00;99.90;;;;;;5037670;28;20448;-71
2024/01/26 04:46:31;;;;;;;1.20;0.80;;;7.20;99.90;;;;;;5031095;28;21227;-72
2024/01/26 04:48:57;;;;;;;1.43;0.77;;;7.80;99.90;;;;;;5033947;28;20186;-71
2024/01/26 04:51:22;;;;;;;1.37;0.70;;;7.00;99.90;;;;;;5035057;28;20186;-71
2024/01/26 04:53:48;;;;;;;1.77;0.93;;;8.40;99.90;;;;;;5034965;28;20209;-71
2024/01/26 04:56:14;;;;;;;1.10;0.60;;;8.30;99.90;;;;;;5035389;28;20201;-72
2024/01/26 04:58:39;;;;;;;1.40;0.60;;;7.80;99.90;;;;;;5042701;28;20177;-71
2024/01/26 05:01:05;;;;;;;2.93;1.30;;;8.00;99.90;;;;;;5034615;28;20550;-71
2024/01/26 05:03:30;;;;;;;7.27;1.47;;;7.00;99.90;;;;;;5034495;28;20533;-71
2024/01/26 05:05:56;;;;;;;5.57;1.77;;;8.40;99.90;;;;;;5034883;28;20213;-71
2024/01/26 05:08:21;;;;;;;3.53;1.50;;;8.40;99.90;;;;;;5033973;28;20202;-72
2024/01/26 05:10:47;;;;;;;3.03;1.03;;;8.30;99.90;;;;;;5034989;28;20197;-71
2024/01/26 05:13:12;;;;;;;1.97;1.27;;;7.90;99.90;;;;;;5034924;28;20666;-71
2024/01/26 05:15:38;;;;;;;2.80;0.97;;;8.30;99.90;;;;;;5034420;28;20237;-72
2024/01/26 05:18:04;;;;;;;1.50;0.90;;;8.30;99.90;;;;;;5034455;28;20230;-71
2024/01/26 05:20:31;;;;;;;1.90;1.00;;;7.10;99.90;;;;;;5034496;28;20233;-71
2024/01/26 05:22:56;;;;;;;3.10;1.30;;;8.60;99.90;;;;;;5034729;28;20413;-71
2024/01/26 05:25:21;;;;;;;1.53;0.90;;;7.80;99.90;;;;;;5035265;28;20584;-72
2024/01/26 05:27:47;;;;;;;2.10;1.07;;;8.20;99.90;;;;;;5034683;28;20180;-71
2024/01/26 05:30:13;;;;;;;1.70;0.90;;;8.70;99.90;;;;;;5033492;28;20222;-71
2024/01/26 05:32:38;;;;;;;3.60;1.10;;;7.30;99.90;;;;;;5034074;28;20543;-71
2024/01/26 05:35:04;;;;;;;6.43;0.90;;;8.80;99.90;;;;;;5034062;28;20182;-71
2024/01/26 05:37:30;;;;;;;1.47;0.90;;;7.20;99.90;;;;;;5033346;28;20593;-72
2024/01/26 05:39:55;;;;;;;5.10;0.70;;;8.60;99.90;;;;;;5033946;28;20496;-71
2024/01/26 05:42:21;;;;;;;1.50;0.60;;;8.40;99.90;;;;;;5034644;28;20171;-71
2024/01/26 05:44:46;;;;;;;1.87;0.97;;;8.00;99.90;;;;;;5035399;28;20984;-72
2024/01/26 05:47:12;;;;;;;1.77;0.87;;;7.10;99.90;;;;;;5034224;28;20257;-71
2024/01/26 05:49:37;;;;;;;3.43;0.80;;;7.50;99.90;;;;;;5033294;28;20185;-71
2024/01/26 05:52:03;;;;;;;1.50;0.63;;;7.00;99.90;;;;;;5040912;28;20565;-71
2024/01/26 05:54:29;;;;;;;1.30;0.60;;;6.90;99.90;;;;;;5033645;28;20599;-71
2024/01/26 05:56:54;;;;;;;1.50;0.80;;;6.90;99.90;;;;;;5034049;28;20185;-72
2024/01/26 05:59:20;;;;;;;1.37;0.70;;;7.80;99.90;;;;;;5033338;28;20194;-71
2024/01/26 06:01:46;;;;;;;2.07;0.90;;;7.40;99.90;;;;;;5047491;28;20657;-71
2024/01/26 06:04:11;;;;;;;1.40;0.63;;;6.90;99.90;;;;;;5033379;28;20185;-72
2024/01/26 06:06:37;;;;;;;4.03;0.80;;;6.90;99.90;;;;;;5032723;28;20421;-71
2024/01/26 06:09:02;;;;;;;3.00;0.83;;;7.60;99.90;;;;;;5033259;28;20190;-72
2024/01/26 06:11:29;;;;;;;1.67;0.97;;;6.90;99.90;;;;;;5033631;28;20308;-72
2024/01/26 06:13:54;;;;;;;1.73;0.60;;;7.70;99.90;;;;;;5033822;28;20496;-72
2024/01/26 06:16:20;;;;;;;1.80;0.50;;;7.60;99.90;;;;;;5033601;28;20178;-72
2024/01/26 06:18:46;;;;;;;1.23;0.60;;;7.10;99.90;;;;;;5033389;28;20196;-72
2024/01/26 06:21:11;;;;;;;1.37;0.70;;;7.10;99.90;;;;;;5033614;28;20179;-72
2024/01/26 06:23:38;;;;;;;2.13;0.87;;;7.20;99.90;;;;;;5033611;28;20487;-71
2024/01/26 06:26:03;;;;;;;1.20;0.53;;;7.20;99.90;;;;;;5033252;28;20182;-72
2024/01/26 06:28:29;;;;;;;1.20;0.60;;;7.30;99.90;;;;;;5033632;28;20425;-72
2024/01/26 06:30:54;;;;;;;1.57;0.60;;;7.30;99.90;;;;;;5032974;28;20225;-72
2024/01/26 06:33:20;;;;;;;8.93;0.80;;;8.70;99.90;;;;;;5032629;28;20205;-72
2024/01/26 06:35:45;;;;;;;1.60;0.77;;;7.40;99.90;;;;;;5032916;28;20178;-72
2024/01/26 06:38:12;;;;;;;1.40;0.80;;;8.80;99.90;;;;;;5035318;28;20594;-72
2024/01/26 06:40:38;;;;;;;1.30;0.70;;;8.40;99.90;;;;;;5032771;28;20217;-72
2024/01/26 06:43:06;;;;;;;1.83;0.80;;;8.50;99.90;;;;;;5022176;28;20500;-72
2024/01/26 06:45:31;;;;;;;1.73;0.87;;;8.60;99.90;;;;;;5032827;28;20171;-72
2024/01/26 06:47:57;;;;;;;2.43;0.93;;;8.80;99.90;;;;;;5033041;28;20754;-72
2024/01/26 06:50:22;;;;;;;3.67;0.77;;;8.70;99.90;;;;;;5032868;28;20265;-72
2024/01/26 06:52:48;;;;;;;1.23;0.67;;;8.40;99.90;;;;;;5032738;28;20623;-72
2024/01/26 06:55:13;;;;;;;1.40;0.73;;;8.50;99.90;;;;;;5032603;28;20185;-72
2024/01/26 06:57:39;;;;;;;1.30;0.70;;;7.40;99.90;;;;;;5032427;28;20205;-72
2024/01/26 07:00:05;;;;;;;1.63;0.90;;;7.50;99.90;;;;;;5032739;28;20202;-72
2024/01/26 07:02:31;;;;;;;2.90;0.80;;;7.40;99.90;;;;;;5032646;28;20179;-72
2024/01/26 07:04:56;;;;;;;2.07;1.27;;;8.80;99.90;;;;;;5032697;28;20423;-72
2024/01/26 07:07:21;;;;;;;1.10;0.50;;;7.50;99.90;;;;;;5031815;28;20183;-72
2024/01/26 07:09:47;;;;;;;2.80;0.80;;;7.50;99.90;;;;;;5031374;28;20192;-72
2024/01/26 07:12:12;;;;;;;1.93;0.90;;;7.50;99.90;;;;;;5032247;28;20214;-72
2024/01/26 07:14:38;;;;;;;1.63;0.97;;;7.60;99.90;;;;;;5032565;28;20194;-72
2024/01/26 07:17:03;;;;;;;4.83;1.60;;;8.70;99.90;;;;;;5031966;28;20198;-73
2024/01/26 07:19:29;;;;;;;3.00;1.20;;;8.70;99.90;;;;;;5031959;28;20201;-73
2024/01/26 07:21:54;;;;;;;2.70;1.10;;;8.00;99.90;;;;;;5032056;28;20209;-73
2024/01/26 07:24:20;;;;;;;3.33;1.30;;;7.70;99.90;;;;;;5032210;28;20269;-73
2024/01/26 07:26:46;;;;;;;6.03;1.00;;;7.70;99.90;;;;;;5028028;28;20178;-73
2024/01/26 07:29:11;;;;;;;1.83;0.90;;;7.80;99.90;;;;;;5033432;28;20309;-73
2024/01/26 07:31:37;;;;;;;1.70;1.07;;;7.80;99.90;;;;;;5033531;28;20508;-73
2024/01/26 07:34:02;;;;;;;1.40;0.73;;;7.80;99.90;;;;;;5027059;28;20193;-73
2024/01/26 07:36:28;;;;;;;1.60;0.67;;;7.90;99.90;;;;;;5032047;28;20182;-73
2024/01/26 07:38:53;;;;;;;1.20;0.60;;;7.90;99.90;;;;;;5031880;28;20179;-73
2024/01/26 07:41:19;;;;;;;1.30;0.70;;;8.00;99.90;;;;;;5027265;28;20186;-73
2024/01/26 07:43:44;;;;;;;1.37;0.70;;;8.00;99.90;;;;;;5035665;28;20637;-73
2024/01/26 07:46:10;;;;;;;1.10;0.60;;;8.00;99.90;;;;;;5030974;28;20234;-73
2024/01/26 07:48:36;;;;;;;1.73;0.60;;;9.50;99.90;;;;;;5031659;28;20901;-73
2024/01/26 07:51:01;;;;;;;5.90;1.50;;;8.90;99.90;;;;;;5015964;28;20418;-72
2024/01/26 07:53:27;;;;;;;1.60;0.70;;;8.10;99.90;;;;;;5032075;28;20178;-73
2024/01/26 07:55:52;;;;;;;1.93;1.00;;;9.70;99.90;;;;;;5031576;28;20197;-73
2024/01/26 07:58:18;;;;;;;1.30;0.63;;;9.90;99.90;;;;;;5031114;28;20182;-73
2024/01/26 08:00:44;;;;;;;4.00;0.97;;;9.10;99.90;;;;;;5031193;28;20198;-71
2024/01/26 08:03:10;;;;;;;1.20;0.60;;;9.70;99.90;;;;;;5031023;28;20205;-72
2024/01/26 08:05:36;;;;;;;1.10;0.50;;;9.00;99.90;;;;;;5031147;28;20897;-72
2024/01/26 08:08:01;;;;;;;1.40;0.80;;;8.30;99.90;;;;;;5030687;28;20635;-72
2024/01/26 08:10:27;;;;;;;1.60;0.90;;;7.30;99.90;;;;;;5030797;28;20997;-72
2024/01/26 08:12:53;;;;;;;1.20;0.60;;;9.10;99.90;;;;;;5031345;28;20174;-72
2024/01/26 08:15:18;;;;;;;1.83;0.73;;;8.40;99.90;;;;;;5030029;28;20261;-73
2024/01/26 08:17:44;;;;;;;1.40;0.60;;;8.30;99.90;;;;;;5030613;28;20185;-74
2024/01/26 08:20:10;;;;;;;1.20;0.70;;;8.30;99.90;;;;;;5031641;28;20693;-73
2024/01/26 08:22:38;;;;;;;1.80;0.70;;;8.40;99.90;;;;;;5031346;28;20178;-73
2024/01/26 08:25:04;;;;;;;2.00;1.00;;;8.40;99.90;;;;;;5030716;28;21233;-73
2024/01/26 08:27:30;;;;;;;1.53;0.80;;;8.40;99.90;;;;;;5031140;28;20471;-74
2024/01/26 08:29:55;;;;;;;3.77;1.83;;;8.50;99.90;;;;;;5018256;28;20470;-73
2024/01/26 08:32:21;;;;;;;2.67;1.10;;;8.50;99.90;;;;;;5011629;28;20183;-74
2024/01/26 08:34:46;;;;;;;3.80;1.27;;;8.50;99.90;;;;;;5010707;28;20679;-74
2024/01/26 08:37:12;;;;;;;1.43;0.83;;;9.40;99.90;;;;;;5011248;28;20265;-74
2024/01/26 08:39:37;;;;;;;2.47;1.30;;;8.60;99.90;;;;;;5010879;28;20675;-72
2024/01/26 08:42:04;;;;;;;1.30;0.77;;;9.80;99.90;;;;;;5012073;28;20226;-72
2024/01/26 08:44:30;;;;;;;2.07;0.90;;;8.60;99.90;;;;;;5012712;28;20175;-72
2024/01/26 08:46:56;;;;;;;2.37;1.30;;;8.60;99.90;;;;;;5011403;28;20410;-72
2024/01/26 08:49:21;;;;;;;1.77;1.00;;;8.70;99.90;;;;;;5011137;28;20883;-72
2024/01/26 08:51:47;;;;;;;3.17;1.10;;;8.80;99.90;;;;;;5011506;28;20560;-72
2024/01/26 08:54:13;;;;;;;2.10;0.93;;;8.80;99.90;;;;;;5011530;28;20409;-71
2024/01/26 08:56:42;;;;;;;4.77;1.10;;;8.90;99.90;;;;;;5010923;28;20631;-71
2024/01/26 08:59:08;;;;;;;4.70;1.47;;;9.90;99.90;;;;;;5011269;28;20686;-72
2024/01/26 09:01:37;;;;;;;1.57;0.77;;;9.00;99.90;;;;;;5011533;28;20930;-71
2024/01/26 09:04:05;;;;;;;1.97;1.03;;;9.80;99.90;;;;;;5011482;28;20422;-71
2024/01/26 09:06:36;;;;;;;4.83;1.23;;;9.00;99.90;;;;;;5006096;28;20418;-72
2024/01/26 09:09:03;;;;;;;1.27;0.67;;;9.00;99.90;;;;;;5010982;28;20410;-72
2024/01/26 09:11:29;;;;;;;2.10;0.83;;;9.00;99.90;;;;;;5011361;28;20712;-72
2024/01/26 09:13:56;;;;;;;2.03;0.80;;;9.40;99.90;;;;;;5010652;28;20437;-73
2024/01/26 09:16:21;;;;;;;6.30;1.10;;;9.20;99.90;;;;;;5011201;28;20182;-72
2024/01/26 09:18:47;;;;;;;2.83;1.10;;;9.20;99.90;;;;;;5010969;28;20426;-75
2024/01/26 09:21:12;;;;;;;2.60;0.83;;;9.20;99.90;;;;;;5012088;28;20281;-75
2024/01/26 09:23:39;;;;;;;1.57;0.70;;;9.30;99.90;;;;;;5010911;28;20582;-73
2024/01/26 09:26:05;;;;;;;1.30;0.70;;;9.20;99.90;;;;;;5006410;28;20185;-73
2024/01/26 09:28:30;;;;;;;2.40;0.80;;;9.20;99.90;;;;;;5011317;28;20433;-72
2024/01/26 09:30:56;;;;;;;3.10;1.17;;;9.20;99.90;;;;;;5029409;28;20717;-72
2024/01/26 09:33:22;;;;;;;2.23;1.20;;;9.20;99.90;;;;;;5031497;28;20579;-73
2024/01/26 09:35:48;;;;;;;1.60;0.80;;;9.20;99.90;;;;;;5034787;28;20182;-74
2024/01/26 09:38:13;;;;;;;2.67;1.17;;;9.10;99.90;;;;;;5034635;28;20282;-74
2024/01/26 09:40:39;;;;;;;2.30;1.20;;;9.50;99.90;;;;;;5017174;28;20534;-74
2024/01/26 09:43:06;;;;;;;3.00;1.00;;;9.10;99.90;;;;;;5033858;28;20189;-73
2024/01/26 09:45:32;;;;;;;1.63;0.93;;;9.20;99.90;;;;;;5039633;28;20178;-73
2024/01/26 09:47:58;;;;;;;6.60;0.80;;;9.10;99.90;;;;;;5033350;28;20781;-73
2024/01/26 09:50:23;;;;;;;1.60;0.80;;;10.00;99.90;;;;;;5033238;28;20525;-73
2024/01/26 09:52:52;;;;;;;2.00;1.30;;;9.30;99.90;;;;;;5033500;28;20653;-73
2024/01/26 09:55:19;;;;;;;1.50;0.63;;;9.40;99.90;;;;;;5033016;28;20190;-74
2024/01/26 09:57:45;;;;;;;1.30;0.70;;;9.50;99.90;;;;;;5020269;28;20413;-73
2024/01/26 10:00:12;;;;;;;3.50;1.13;;;9.60;99.90;;;;;;5032154;28;20591;-73
2024/01/26 10:02:38;;;;;;;1.40;0.80;;;9.70;99.90;;;;;;5033263;28;20190;-73
2024/01/26 10:05:05;;;;;;;3.10;1.00;;;9.70;99.90;;;;;;5033487;28;20467;-73
2024/01/26 10:07:30;;;;;;;1.70;0.83;;;9.70;99.90;;;;;;5033462;28;20464;-73
2024/01/26 10:09:56;;;;;;;2.57;1.00;;;9.70;99.90;;;;;;5032589;28;20953;-72
2024/01/26 10:12:23;;;;;;;1.20;0.67;;;9.70;99.90;;;;;;5033142;28;20182;-73
2024/01/26 10:14:49;;;;;;;1.77;0.87;;;9.70;99.90;;;;;;5032184;28;20647;-73
2024/01/26 10:17:18;;;;;;;4.33;1.37;;;9.60;99.90;;;;;;5033486;28;20425;-72
2024/01/26 10:19:43;;;;;;;5.63;1.00;;;9.70;99.90;;;;;;5032764;28;20465;-72
2024/01/26 10:22:09;;;;;;;2.43;0.83;;;9.70;99.90;;;;;;5032517;28;20951;-72
2024/01/26 10:24:34;;;;;;;3.13;1.60;;;9.70;99.90;;;;;;5031058;28;20209;-72
2024/01/26 10:27:00;;;;;;;2.40;1.10;;;9.70;99.90;;;;;;5031899;28;20182;-72
2024/01/26 10:29:26;;;;;;;2.13;0.97;;;9.70;99.90;;;;;;5032355;28;20218;-72
2024/01/26 10:31:52;;;;;;;3.90;1.23;;;9.80;99.90;;;;;;5033010;28;20171;-72
2024/01/26 10:34:18;;;;;;;1.80;1.00;;;9.70;99.90;;;;;;5034905;28;20444;-72
2024/01/26 10:36:46;;;;;;;1.50;1.00;;;9.70;99.90;;;;;;5031199;28;20178;-72
2024/01/26 10:39:22;;;;;;;1.17;0.60;;;9.80;99.90;;;;;;5031253;28;20432;-72
2024/01/26 10:41:50;;;;;;;1.63;0.80;;;9.80;99.90;;;;;;5031966;28;20409;-72
2024/01/26 10:44:16;;;;;;;1.30;0.60;;;9.90;99.90;;;;;;5038300;28;20417;-72
2024/01/26 10:46:42;;;;;;;1.57;0.90;;;10.00;99.90;;;;;;5031572;28;20462;-72
2024/01/26 10:49:11;;;;;;;1.70;0.63;;;10.00;99.90;;;;;;5032075;28;20437;-72
2024/01/26 10:51:40;;;;;;;1.83;1.00;;;10.10;99.90;;;;;;5032101;28;20894;-72
2024/01/26 10:54:10;;;;;;;1.70;0.70;;;10.10;99.90;;;;;;5032146;28;20467;-72
2024/01/26 10:56:35;;;;;;;1.60;0.73;;;10.10;99.90;;;;;;5031520;28;20472;-72
2024/01/26 10:59:01;;;;;;;1.87;1.10;;;10.10;99.90;;;;;;5026810;28;20436;-71
2024/01/26 11:01:28;;;;;;;2.27;0.83;;;10.10;99.90;;;;;;5030429;28;20182;-72
2024/01/26 11:03:58;;;;;;;1.90;0.80;;;10.10;99.90;;;;;;5023572;28;21145;-72
2024/01/26 11:06:26;;;;;;;1.80;1.00;;;10.10;99.90;;;;;;5037244;28;20765;-74
2024/01/26 11:08:58;;;;;;;2.50;0.63;;;10.10;99.90;;;;;;5024708;28;20444;-73
2024/01/26 11:11:23;;;;;;;3.50;1.10;;;10.20;99.90;;;;;;5028592;28;20452;-75
2024/01/26 11:13:54;;;;;;;4.20;1.23;;;10.30;99.90;;;;;;5032006;28;20953;-72
2024/01/26 11:16:24;;;;;;;1.83;1.10;;;10.20;99.90;;;;;;5026716;28;20639;-72
2024/01/26 11:18:59;;;;;;;2.83;1.23;;;10.20;99.90;;;;;;5031204;28;20917;-72
2024/01/26 11:21:35;;;;;;;1.67;0.97;;;10.10;99.90;;;;;;5031598;28;20424;-72
2024/01/26 11:24:11;;;;;;;4.53;1.07;;;10.00;99.90;;;;;;5033837;28;20428;-72
2024/01/26 11:26:37;;;;;;;2.23;1.30;;;10.00;99.90;;;;;;5031754;28;20873;-74
2024/01/26 11:29:13;;;;;;;3.10;1.10;;;9.90;99.90;;;;;;5031110;28;20460;-74
2024/01/26 11:31:40;;;;;;;3.00;1.20;;;9.90;99.90;;;;;;5031771;28;20181;-74
2024/01/26 11:34:17;;;;;;;1.77;0.80;;;10.00;99.90;;;;;;5031292;28;20454;-74
2024/01/26 11:36:42;;;;;;;3.60;1.50;;;10.00;99.90;;;;;;5023593;28;20401;-74
2024/01/26 11:39:13;;;;;;;3.43;1.20;;;9.90;99.90;;;;;;5031314;28;21370;-74
2024/01/26 11:41:43;;;;;;;1.70;0.80;;;10.00;99.90;;;;;;5031543;28;20539;-74
2024/01/26 11:44:21;;;;;;;1.93;1.03;;;10.00;99.90;;;;;;5030945;28;20440;-72
2024/01/26 11:46:47;;;;;;;4.67;0.90;;;10.00;99.90;;;;;;5031119;28;20425;-73
2024/01/26 11:49:13;;;;;;;2.13;1.30;;;9.90;99.90;;;;;;5030707;28;20429;-73
2024/01/26 11:51:39;;;;;;;2.43;0.83;;;10.00;99.90;;;;;;5031670;28;20616;-75
2024/01/26 11:54:05;;;;;;;2.40;1.30;;;9.90;99.90;;;;;;5032138;28;20192;-75
2024/01/26 11:56:31;;;;;;;2.27;1.10;;;9.90;99.90;;;;;;5031757;28;20273;-75
2024/01/26 11:58:58;;;;;;;4.53;1.20;;;9.90;99.90;;;;;;5031350;28;20508;-74
2024/01/26 12:01:23;;;;;;;2.00;0.90;;;9.90;99.90;;;;;;5030853;28;20460;-73
2024/01/26 12:03:50;;;;;;;2.37;1.00;;;9.90;99.90;;;;;;5029656;28;20760;-72
2024/01/26 12:06:15;;;;;;;3.20;1.33;;;9.90;99.90;;;;;;5030999;28;20185;-72
2024/01/26 12:08:41;;;;;;;2.07;0.90;;;9.80;99.90;;;;;;5030396;28;20428;-73
2024/01/26 12:11:07;;;;;;;2.17;0.90;;;9.80;99.90;;;;;;5029966;28;20198;-73
2024/01/26 12:13:33;;;;;;;2.67;1.20;;;9.80;99.90;;;;;;5013261;28;20186;-73
2024/01/26 12:15:58;;;;;;;1.20;0.60;;;9.90;99.90;;;;;;5029551;28;20443;-73
2024/01/26 12:18:24;;;;;;;3.80;1.33;;;10.00;99.90;;;;;;5029295;28;20193;-73
2024/01/26 12:20:52;;;;;;;1.50;0.80;;;10.00;99.90;;;;;;5029416;28;20682;-73
2024/01/26 12:23:19;;;;;;;2.77;1.40;;;10.00;99.90;;;;;;5029824;28;20178;-73
2024/01/26 12:25:45;;;;;;;1.63;0.87;;;10.20;99.90;;;;;;5030318;28;20475;-72
2024/01/26 12:28:10;;;;;;;1.73;0.90;;;10.20;99.90;;;;;;5030042;28;20798;-74
2024/01/26 12:30:37;;;;;;;1.20;0.63;;;10.20;99.90;;;;;;5030388;28;20938;-73
2024/01/26 12:33:07;;;;;;;1.70;0.83;;;10.30;99.90;;;;;;5031519;28;20206;-72
2024/01/26 12:35:35;;;;;;;2.07;0.93;;;10.30;99.90;;;;;;5028858;28;20460;-74
2024/01/26 12:38:01;;;;;;;3.13;1.10;;;10.30;99.90;;;;;;5030022;28;20424;-74
2024/01/26 12:40:26;;;;;;;1.30;0.83;;;10.30;99.90;;;;;;5030182;28;20461;-73
2024/01/26 12:42:52;;;;;;;2.47;0.83;;;10.10;99.90;;;;;;5030409;28;20189;-73
2024/01/26 12:45:17;;;;;;;2.60;0.70;;;10.10;99.90;;;;;;5030154;28;20203;-73
2024/01/26 12:47:43;;;;;;;13.07;1.00;;;10.10;99.90;;;;;;5029405;28;20196;-74
2024/01/26 12:50:09;;;;;;;3.20;1.50;;;10.00;99.90;;;;;;5029749;28;20186;-73